PHP Weather

Conditions Météo Internationales

Rapport météo courant pour Montreal / Dorval International, Que, Canada:

Voici le bulletin pour Montreal / Dorval International, Que, Canada. Le bulletin a été fait il y a 12 minutes , à 03:00 UTC. Le vent soufflait à la vitesse de 3.1 mètres par seconde (6.9 miles par heure) de Sud-ouest (230°). La température était de 11 °C (52 °F), avec un point de rosée à 5 °C (41 °F). La pression atmosphérique était de 1020 hPa (30.12 inHg). L'humidité relative était de 66.5%. Le ciel était clear. La visibilité globale était de 24.1 kilomètres (15.0 miles).

Code METAR : CYUL 210300Z 23006KT 15SM SKC 11/05 A3012 RMK SLP202